createdAt,value
2018-01-31T01:52:22.485Z,16.30
2018-01-31T01:54:50.834Z,16.30
2018-01-31T01:57:18.416Z,16.30
2018-01-31T01:59:46.767Z,16.30
2018-01-31T02:02:14.357Z,16.30
2018-01-31T02:04:42.709Z,16.30
2018-01-31T02:07:10.283Z,16.30
2018-01-31T02:09:37.859Z,16.30
2018-01-31T02:12:06.219Z,16.30
2018-01-31T02:14:33.787Z,16.30
2018-01-31T02:17:01.383Z,16.30
2018-01-31T02:19:28.955Z,16.30
2018-01-31T02:21:56.548Z,16.20
2018-01-31T02:24:24.150Z,16.30
2018-01-31T02:26:52.477Z,16.30
2018-01-31T02:29:20.090Z,16.30
2018-01-31T02:31:48.441Z,16.30
2018-01-31T02:34:16.034Z,16.30
2018-01-31T02:36:43.616Z,16.30
2018-01-31T02:39:17.138Z,16.30
2018-01-31T02:41:44.726Z,16.30
2018-01-31T02:44:12.291Z,16.30
2018-01-31T02:46:40.660Z,16.30
2018-01-31T02:49:08.245Z,16.30
2018-01-31T02:51:36.589Z,16.30
2018-01-31T02:54:04.175Z,16.20
2018-01-31T02:56:32.536Z,16.30
2018-01-31T02:59:00.115Z,16.30
2018-01-31T03:01:28.483Z,16.20
2018-01-31T03:03:58.935Z,16.20
2018-01-31T03:06:27.284Z,16.20
2018-01-31T03:08:54.873Z,16.20
2018-01-31T03:11:23.218Z,16.20
2018-01-31T03:13:50.810Z,16.20
2018-01-31T03:16:19.160Z,16.20
2018-01-31T03:18:46.760Z,16.20
2018-01-31T03:21:14.358Z,16.20
2018-01-31T03:23:41.927Z,16.20
2018-01-31T03:26:09.507Z,16.20
2018-01-31T03:28:37.114Z,16.20
2018-01-31T03:31:05.085Z,16.20
2018-01-31T03:33:32.628Z,16.20
2018-01-31T03:36:00.237Z,16.20
2018-01-31T03:38:27.813Z,16.20
2018-01-31T03:40:55.399Z,16.20
2018-01-31T03:43:23.736Z,16.20
2018-01-31T03:45:51.323Z,16.20
2018-01-31T03:48:18.902Z,16.20
2018-01-31T03:50:47.248Z,16.20
2018-01-31T03:53:14.841Z,16.20
2018-01-31T03:55:43.195Z,16.20
2018-01-31T03:58:10.781Z,16.20
2018-01-31T04:00:39.133Z,16.20
2018-01-31T04:03:06.709Z,16.20
2018-01-31T04:05:34.291Z,16.20
2018-01-31T04:08:01.888Z,16.20
2018-01-31T04:10:29.508Z,16.20
2018-01-31T04:12:57.851Z,16.20
2018-01-31T04:15:25.434Z,16.20
2018-01-31T04:17:53.788Z,16.20
2018-01-31T04:20:21.397Z,16.10
2018-01-31T04:22:48.978Z,16.20
2018-01-31T04:25:16.568Z,16.20
2018-01-31T04:27:44.162Z,16.20
2018-01-31T04:30:11.832Z,16.20
2018-01-31T04:32:39.482Z,16.20
2018-01-31T04:35:07.048Z,16.20
2018-01-31T04:37:34.648Z,16.20
2018-01-31T04:40:02.374Z,16.20
2018-01-31T04:42:29.924Z,16.20
2018-01-31T04:44:57.510Z,16.20
2018-01-31T04:47:25.101Z,16.20
2018-01-31T04:49:53.452Z,16.20
2018-01-31T04:52:21.053Z,16.20
2018-01-31T04:54:49.402Z,16.20
2018-01-31T04:57:17.089Z,16.20
2018-01-31T04:59:45.428Z,16.20
2018-01-31T05:02:13.019Z,16.20
2018-01-31T05:04:40.605Z,16.20
2018-01-31T05:07:08.237Z,16.20
2018-01-31T05:09:35.816Z,16.20
2018-01-31T05:12:04.177Z,16.20
2018-01-31T05:14:31.792Z,16.20
2018-01-31T05:16:59.345Z,16.20
2018-01-31T05:19:26.947Z,16.20
2018-01-31T05:21:54.531Z,16.20
2018-01-31T05:24:22.903Z,16.20
2018-01-31T05:26:50.475Z,16.10
2018-01-31T05:29:18.829Z,16.20
2018-01-31T05:31:46.422Z,16.10
2018-01-31T05:34:14.782Z,16.20
2018-01-31T05:36:42.363Z,16.10
2018-01-31T05:39:10.696Z,16.20
2018-01-31T05:41:38.298Z,16.20
2018-01-31T05:44:05.874Z,16.20
2018-01-31T05:46:33.545Z,16.20
2018-01-31T05:49:01.190Z,16.20
2018-01-31T05:51:28.758Z,16.20
2018-01-31T05:53:56.331Z,16.10
2018-01-31T05:56:23.936Z,16.20
2018-01-31T05:58:51.512Z,16.20
2018-01-31T06:01:19.083Z,16.20
2018-01-31T06:03:47.440Z,16.10
2018-01-31T06:06:15.017Z,16.10
2018-01-31T06:08:43.383Z,16.20
2018-01-31T06:11:10.943Z,16.20
2018-01-31T06:13:38.570Z,16.20
2018-01-31T06:16:06.141Z,16.20
2018-01-31T06:18:33.713Z,16.20
2018-01-31T06:21:01.293Z,16.10
2018-01-31T06:23:28.897Z,16.20
2018-01-31T06:25:56.529Z,16.20
2018-01-31T06:28:24.239Z,16.20
2018-01-31T06:30:52.771Z,16.20
2018-01-31T06:33:20.355Z,16.20
2018-01-31T06:35:47.947Z,16.20
2018-01-31T06:38:15.546Z,16.20
2018-01-31T06:40:43.131Z,16.30
2018-01-31T06:43:10.707Z,16.30
2018-01-31T06:45:38.313Z,16.30
2018-01-31T06:48:05.901Z,16.30
2018-01-31T06:50:34.278Z,16.20
2018-01-31T06:53:01.872Z,16.20
2018-01-31T06:55:30.264Z,16.30
2018-01-31T06:57:57.849Z,16.30
2018-01-31T07:00:25.428Z,16.20
2018-01-31T07:02:53.006Z,16.30
2018-01-31T07:05:20.592Z,16.30
2018-01-31T07:07:48.176Z,16.30
2018-01-31T07:10:16.541Z,16.30
2018-01-31T07:12:44.124Z,16.20
2018-01-31T07:15:11.702Z,16.20
2018-01-31T07:17:39.272Z,16.20
2018-01-31T07:20:06.868Z,16.20
2018-01-31T07:22:34.507Z,16.20
2018-01-31T07:25:02.061Z,16.20
2018-01-31T07:27:29.655Z,16.20
2018-01-31T07:29:57.248Z,16.20
2018-01-31T07:32:24.827Z,16.20
2018-01-31T07:34:52.389Z,16.20
2018-01-31T07:37:19.993Z,16.20
2018-01-31T07:39:47.584Z,16.20
2018-01-31T07:42:15.941Z,16.20
2018-01-31T07:44:43.526Z,16.20
2018-01-31T07:47:11.903Z,16.20
2018-01-31T07:49:39.487Z,16.10
2018-01-31T07:52:07.065Z,16.20
2018-01-31T07:54:34.654Z,16.20
2018-01-31T07:57:02.331Z,16.20
2018-01-31T07:59:29.930Z,16.20
2018-01-31T08:01:57.507Z,16.20
2018-01-31T08:04:25.183Z,16.20
2018-01-31T08:06:52.739Z,16.20
2018-01-31T08:09:20.333Z,16.20
2018-01-31T08:11:48.019Z,16.20
2018-01-31T08:14:16.629Z,16.20
2018-01-31T08:16:44.354Z,16.20
2018-01-31T08:19:12.227Z,16.20
2018-01-31T08:21:40.061Z,16.30
2018-01-31T08:24:07.678Z,16.30
2018-01-31T08:26:36.035Z,16.30
2018-01-31T08:29:03.666Z,16.30
2018-01-31T08:31:31.300Z,16.30
2018-01-31T08:33:58.904Z,16.30
2018-01-31T08:36:26.486Z,16.30
2018-01-31T08:38:54.841Z,16.40
2018-01-31T08:41:22.418Z,16.30
2018-01-31T08:43:50.792Z,16.40
2018-01-31T08:46:18.399Z,16.40
2018-01-31T08:48:45.969Z,16.40
2018-01-31T08:51:13.571Z,16.50
2018-01-31T08:53:41.169Z,16.50
2018-01-31T08:56:08.754Z,16.60
2018-01-31T08:58:37.105Z,16.60
2018-01-31T09:01:05.215Z,16.60
2018-01-31T09:03:33.533Z,16.60
2018-01-31T09:06:01.111Z,16.60
2018-01-31T09:08:29.467Z,16.70
2018-01-31T09:10:57.048Z,16.60
2018-01-31T09:13:25.402Z,16.70
2018-01-31T09:15:53.148Z,16.70
2018-01-31T09:18:20.740Z,16.70
2018-01-31T09:20:48.300Z,16.70
2018-01-31T09:23:15.889Z,16.80
2018-01-31T09:25:44.254Z,16.80
2018-01-31T09:28:11.826Z,16.80
2018-01-31T09:30:40.164Z,16.70
2018-01-31T09:33:07.768Z,16.70
2018-01-31T09:35:36.167Z,16.70
2018-01-31T09:38:03.758Z,16.70
2018-01-31T09:40:31.352Z,16.70
2018-01-31T09:42:58.976Z,16.80
2018-01-31T09:45:26.579Z,16.80
2018-01-31T09:47:54.181Z,16.90
2018-01-31T09:50:21.823Z,16.80
2018-01-31T09:52:49.439Z,16.80
2018-01-31T09:55:17.021Z,16.80
2018-01-31T09:57:45.383Z,16.70
2018-01-31T10:00:12.974Z,16.70
2018-01-31T10:02:41.325Z,16.70
2018-01-31T10:05:08.917Z,16.70
2018-01-31T10:07:37.300Z,16.80
2018-01-31T10:10:05.647Z,16.80
2018-01-31T10:12:33.265Z,16.80
2018-01-31T10:15:00.872Z,16.80
2018-01-31T10:17:28.455Z,16.80
2018-01-31T10:19:56.147Z,16.80
2018-01-31T10:22:23.744Z,16.90
2018-01-31T10:24:51.333Z,16.80
2018-01-31T10:27:18.915Z,16.80
2018-01-31T10:29:46.510Z,16.80
2018-01-31T10:32:14.092Z,16.90
2018-01-31T10:34:41.696Z,16.90
2018-01-31T10:37:09.336Z,16.90
2018-01-31T10:39:36.906Z,17.00
2018-01-31T10:42:05.256Z,17.00
2018-01-31T10:44:32.833Z,17.00
2018-01-31T10:47:01.184Z,17.10
2018-01-31T10:49:28.776Z,17.10
2018-01-31T10:51:57.140Z,17.20
2018-01-31T10:59:19.885Z,17.20
2018-01-31T11:01:47.472Z,17.20
2018-01-31T11:04:15.055Z,17.20
2018-01-31T11:06:42.669Z,17.20
2018-01-31T11:09:10.276Z,17.20
2018-01-31T11:11:37.867Z,17.30
2018-01-31T11:14:05.451Z,17.30
2018-01-31T11:16:33.042Z,17.20
2018-01-31T11:19:00.635Z,17.20
2018-01-31T11:21:28.979Z,17.10
2018-01-31T11:23:56.563Z,17.10
2018-01-31T11:26:24.939Z,17.20
2018-01-31T11:28:52.529Z,17.20
2018-01-31T11:31:20.216Z,17.20
2018-01-31T11:33:47.763Z,17.20
2018-01-31T11:36:15.343Z,17.10
2018-01-31T11:38:43.077Z,17.10
2018-01-31T11:41:10.663Z,17.10
2018-01-31T11:43:38.295Z,17.10
2018-01-31T11:46:05.883Z,17.20
2018-01-31T11:48:33.459Z,17.10
2018-01-31T11:51:01.154Z,17.20
2018-01-31T11:53:28.936Z,17.20
2018-01-31T11:55:57.288Z,17.20
2018-01-31T11:58:24.872Z,17.20
2018-01-31T12:00:53.230Z,17.20
2018-01-31T12:03:20.812Z,17.20
2018-01-31T12:05:48.403Z,17.20
2018-01-31T12:08:16.009Z,17.20
2018-01-31T12:10:43.598Z,17.20
2018-01-31T12:13:17.884Z,17.20
2018-01-31T12:15:51.303Z,17.20
2018-01-31T12:18:25.661Z,17.20
2018-01-31T12:20:59.032Z,17.20
2018-01-31T12:23:45.456Z,17.10
2018-01-31T12:26:18.948Z,17.20
2018-01-31T12:28:52.448Z,17.20
2018-01-31T12:31:25.867Z,17.20
2018-01-31T12:33:59.470Z,17.20
2018-01-31T12:36:32.869Z,17.20
2018-01-31T12:39:00.200Z,17.20
2018-01-31T12:41:27.536Z,17.20
2018-01-31T12:43:56.699Z,17.10
2018-01-31T12:46:30.520Z,17.10
2018-01-31T12:49:00.861Z,17.10
2018-01-31T12:51:35.187Z,17.10
2018-01-31T12:54:09.482Z,17.10
2018-01-31T12:56:42.759Z,17.10
2018-01-31T12:59:16.424Z,17.10
2018-01-31T13:01:49.922Z,17.10
2018-01-31T13:04:23.532Z,17.10
2018-01-31T13:06:56.992Z,17.10
2018-01-31T13:09:31.330Z,17.10
2018-01-31T13:12:04.657Z,17.10
2018-01-31T13:14:38.270Z,17.10
2018-01-31T13:17:11.739Z,17.10
2018-01-31T13:19:45.112Z,17.10
2018-01-31T13:22:19.391Z,17.10
2018-01-31T13:25:05.720Z,17.10
2018-01-31T13:27:39.491Z,17.10
2018-01-31T13:30:25.932Z,17.10
2018-01-31T13:33:06.012Z,17.00
2018-01-31T13:35:39.660Z,17.00
2018-01-31T13:38:13.062Z,17.10
2018-01-31T13:40:46.533Z,17.10
2018-01-31T13:43:20.014Z,17.10
2018-01-31T13:45:53.408Z,17.10
2018-01-31T13:48:26.962Z,17.10
2018-01-31T13:51:06.251Z,17.10
2018-01-31T13:53:39.638Z,17.10
2018-01-31T13:56:27.071Z,17.10
2018-01-31T13:59:00.546Z,17.10
2018-01-31T14:01:34.163Z,17.10
2018-01-31T14:07:01.132Z,17.10
2018-01-31T14:09:34.597Z,17.00
2018-01-31T14:12:02.225Z,17.10
2018-01-31T14:14:35.775Z,17.00
2018-01-31T14:17:19.111Z,17.10
2018-01-31T14:19:52.481Z,17.10
2018-01-31T14:22:25.992Z,17.10
2018-01-31T14:24:59.385Z,17.10
2018-01-31T14:27:33.004Z,17.10
2018-01-31T14:30:06.338Z,17.10
2018-01-31T14:32:39.866Z,17.10
2018-01-31T14:35:13.211Z,17.00
2018-01-31T14:37:40.548Z,17.10
2018-01-31T14:40:07.888Z,17.00
2018-01-31T14:42:35.257Z,17.10
2018-01-31T14:45:02.815Z,17.10
2018-01-31T14:47:30.132Z,17.10
2018-01-31T14:49:57.628Z,17.10
2018-01-31T14:52:24.972Z,17.10
2018-01-31T14:54:52.302Z,17.10
2018-01-31T14:57:19.663Z,17.10
2018-01-31T14:59:47.029Z,17.10
2018-01-31T15:02:14.376Z,17.10
2018-01-31T15:04:41.709Z,17.00
2018-01-31T15:07:09.797Z,17.10
2018-01-31T15:09:37.127Z,17.10
2018-01-31T15:12:04.450Z,17.10
2018-01-31T15:14:31.789Z,17.10
2018-01-31T15:16:59.639Z,17.10
2018-01-31T15:19:26.975Z,17.10
2018-01-31T15:21:55.098Z,17.10
2018-01-31T15:24:23.240Z,17.10
2018-01-31T15:26:50.579Z,17.10
2018-01-31T15:29:18.787Z,17.10
2018-01-31T15:31:46.111Z,17.10
2018-01-31T15:34:13.465Z,17.10
2018-01-31T15:36:41.833Z,17.10
2018-01-31T15:39:09.973Z,17.00
2018-01-31T15:41:37.363Z,17.00
2018-01-31T15:44:05.460Z,17.00
2018-01-31T15:46:32.796Z,17.00
2018-01-31T15:49:00.956Z,17.10
2018-01-31T15:51:29.200Z,17.00
2018-01-31T15:53:56.598Z,17.00
2018-01-31T15:56:23.956Z,17.00
2018-01-31T15:58:52.120Z,17.00
2018-01-31T16:01:19.467Z,17.00
2018-01-31T16:03:46.782Z,17.00
2018-01-31T16:06:14.274Z,17.00
2018-01-31T16:08:41.600Z,17.00
2018-01-31T16:11:08.946Z,17.00
2018-01-31T16:13:36.276Z,17.00
2018-01-31T16:16:03.902Z,17.00
2018-01-31T16:18:37.427Z,16.90
2018-01-31T16:21:11.596Z,16.90
2018-01-31T16:23:39.190Z,16.90
2018-01-31T16:26:06.772Z,16.90
2018-01-31T16:28:40.353Z,17.00
2018-01-31T16:31:07.969Z,17.00
2018-01-31T16:33:36.515Z,17.00
2018-01-31T16:36:04.921Z,17.00
2018-01-31T16:38:32.531Z,17.00
2018-01-31T16:41:00.143Z,17.00
2018-01-31T16:43:27.725Z,17.00
2018-01-31T16:45:55.321Z,17.00
2018-01-31T16:48:22.908Z,17.00
2018-01-31T16:50:50.485Z,16.90
2018-01-31T16:53:18.148Z,17.00
2018-01-31T16:55:45.750Z,17.00
2018-01-31T16:58:13.344Z,17.00
2018-01-31T17:00:40.921Z,17.00
2018-01-31T17:03:08.504Z,17.00
2018-01-31T17:05:36.111Z,16.90
2018-01-31T17:08:04.502Z,17.00
2018-01-31T17:10:32.112Z,16.90
2018-01-31T17:12:59.750Z,17.00
2018-01-31T17:15:27.406Z,17.00
2018-01-31T17:17:55.018Z,17.00
2018-01-31T17:20:22.598Z,16.90
2018-01-31T17:22:51.056Z,16.90
2018-01-31T17:25:18.596Z,16.90
2018-01-31T17:27:46.208Z,16.90
2018-01-31T17:30:14.580Z,16.90
2018-01-31T17:32:42.168Z,16.90
2018-01-31T17:35:09.750Z,16.90
2018-01-31T17:37:37.368Z,17.00
2018-01-31T17:40:05.761Z,17.00
2018-01-31T17:42:34.105Z,16.90
2018-01-31T17:45:01.717Z,16.90
2018-01-31T17:47:29.431Z,16.90
2018-01-31T17:49:57.179Z,16.90
2018-01-31T17:52:24.761Z,16.90
2018-01-31T17:57:19.943Z,16.90
2018-01-31T17:59:47.535Z,16.90
2018-01-31T18:02:15.127Z,17.00
2018-01-31T18:04:43.527Z,17.00
2018-01-31T18:07:11.143Z,16.90
2018-01-31T18:09:38.699Z,17.00
2018-01-31T18:12:06.315Z,16.90
2018-01-31T18:14:33.887Z,16.90
2018-01-31T18:17:01.530Z,16.90
2018-01-31T18:19:29.113Z,16.90
2018-01-31T18:21:56.781Z,16.90
2018-01-31T18:24:24.372Z,16.90
2018-01-31T18:26:52.020Z,16.90
2018-01-31T18:29:19.604Z,16.90
2018-01-31T18:31:47.212Z,16.90
2018-01-31T18:34:14.829Z,16.90
2018-01-31T18:36:42.396Z,16.90
2018-01-31T18:39:10.756Z,16.90
2018-01-31T18:41:38.496Z,16.90
2018-01-31T18:44:06.949Z,16.90
2018-01-31T18:46:34.514Z,16.90
2018-01-31T18:49:02.151Z,16.90
2018-01-31T18:51:29.750Z,16.90
2018-01-31T18:53:57.387Z,16.90
2018-01-31T18:56:25.010Z,16.90
2018-01-31T18:58:52.618Z,16.90
2018-01-31T19:01:20.235Z,16.90
2018-01-31T19:03:47.856Z,16.90
2018-01-31T19:06:15.464Z,16.90
2018-01-31T19:08:43.108Z,16.90
2018-01-31T19:11:10.678Z,16.90
2018-01-31T19:13:38.337Z,16.90
2018-01-31T19:16:05.879Z,16.90
2018-01-31T19:18:33.467Z,16.90
2018-01-31T19:21:01.051Z,16.90
2018-01-31T19:23:29.395Z,16.90
2018-01-31T19:25:57.066Z,16.90
2018-01-31T19:28:25.421Z,16.90
2018-01-31T19:30:53.781Z,16.90
2018-01-31T19:33:21.385Z,16.80
2018-01-31T19:35:49.001Z,16.90
2018-01-31T19:38:16.640Z,16.90
2018-01-31T19:40:44.266Z,16.90
2018-01-31T19:43:12.602Z,16.90
2018-01-31T19:45:40.179Z,16.90
2018-01-31T19:48:08.540Z,16.90
2018-01-31T19:50:36.126Z,16.90
2018-01-31T19:53:04.478Z,16.90
2018-01-31T19:55:32.125Z,16.90
2018-01-31T19:57:59.747Z,16.90
2018-01-31T20:00:27.305Z,16.90
2018-01-31T20:02:54.946Z,16.90
2018-01-31T20:05:22.518Z,16.90
2018-01-31T20:07:50.863Z,16.90
2018-01-31T20:10:18.444Z,16.90
2018-01-31T20:12:46.803Z,16.90
2018-01-31T20:15:14.436Z,16.90
2018-01-31T20:17:41.994Z,16.90
2018-01-31T20:20:09.624Z,16.90
2018-01-31T20:22:37.965Z,16.90
2018-01-31T20:25:07.293Z,16.90
2018-01-31T20:27:35.681Z,16.90
2018-01-31T20:30:04.103Z,16.90
2018-01-31T20:32:31.873Z,16.90
2018-01-31T20:34:59.571Z,16.90
2018-01-31T20:37:28.982Z,16.90
2018-01-31T20:39:56.733Z,16.90
2018-01-31T20:42:26.562Z,16.90
2018-01-31T20:44:54.739Z,16.90
2018-01-31T20:47:23.130Z,16.90
2018-01-31T20:49:51.520Z,16.90
2018-01-31T20:52:19.180Z,16.90
2018-01-31T20:54:47.521Z,16.90
2018-01-31T20:57:15.097Z,16.80
2018-01-31T20:59:43.512Z,16.90
2018-01-31T21:02:11.138Z,16.80
2018-01-31T21:04:38.768Z,16.90
2018-01-31T21:07:06.354Z,16.90
2018-01-31T21:09:33.923Z,16.90
2018-01-31T21:12:02.293Z,16.90
2018-01-31T21:14:29.932Z,16.90
2018-01-31T21:16:57.545Z,16.90
2018-01-31T21:19:25.888Z,16.90
2018-01-31T21:21:53.502Z,16.90
2018-01-31T21:24:21.106Z,16.90
2018-01-31T21:26:48.737Z,16.90
2018-01-31T21:29:16.379Z,16.90
2018-01-31T21:31:43.968Z,16.90
2018-01-31T21:34:11.620Z,16.90
2018-01-31T21:36:39.175Z,16.90
2018-01-31T21:39:06.853Z,16.90
2018-01-31T21:41:34.448Z,16.90
2018-01-31T21:44:02.060Z,16.90
2018-01-31T21:46:29.650Z,16.90
2018-01-31T21:48:57.279Z,16.90
2018-01-31T21:51:24.864Z,16.90
2018-01-31T21:53:52.478Z,17.00
2018-01-31T21:56:20.063Z,17.10
2018-01-31T21:58:47.646Z,17.10
2018-01-31T22:01:15.265Z,17.20
2018-01-31T22:03:43.592Z,17.10
2018-01-31T22:06:11.201Z,17.10
2018-01-31T22:08:38.794Z,17.10
2018-01-31T22:11:06.391Z,17.10
2018-01-31T22:13:56.283Z,17.20
2018-01-31T22:16:23.858Z,17.20
2018-01-31T22:18:52.212Z,17.20
2018-01-31T22:21:19.794Z,17.20
2018-01-31T22:23:48.136Z,17.20
2018-01-31T22:26:15.716Z,17.10
2018-01-31T22:28:44.114Z,17.10
2018-01-31T22:31:12.504Z,17.10
2018-01-31T22:33:40.095Z,17.10
2018-01-31T22:36:07.762Z,17.10
2018-01-31T22:38:35.329Z,17.10
2018-01-31T22:41:03.050Z,17.10
2018-01-31T22:43:30.627Z,17.10
2018-01-31T22:45:58.262Z,17.10
2018-01-31T22:48:25.828Z,17.10
2018-01-31T22:50:54.209Z,17.10
2018-01-31T22:53:21.787Z,17.10
2018-01-31T22:55:49.372Z,17.10
2018-01-31T22:58:17.579Z,17.10
2018-01-31T23:00:45.163Z,17.10
2018-01-31T23:03:13.523Z,17.10
2018-01-31T23:05:41.889Z,17.10
2018-01-31T23:08:09.479Z,17.10
2018-01-31T23:10:37.868Z,17.10
2018-01-31T23:13:11.273Z,17.10
2018-01-31T23:15:38.853Z,17.10
2018-01-31T23:18:12.171Z,17.10
2018-01-31T23:21:49.240Z,17.10
2018-01-31T23:24:17.046Z,17.10
2018-01-31T23:26:44.680Z,17.10
2018-01-31T23:29:12.312Z,17.10
2018-01-31T23:31:39.984Z,17.10
2018-01-31T23:34:07.572Z,17.10
2018-01-31T23:36:35.158Z,17.10
2018-01-31T23:39:02.765Z,17.10
2018-01-31T23:41:30.342Z,17.00
2018-01-31T23:43:57.920Z,17.10
2018-01-31T23:46:25.522Z,17.10
2018-01-31T23:48:53.100Z,17.10
2018-01-31T23:51:20.683Z,17.10
2018-01-31T23:53:48.253Z,17.10
2018-01-31T23:56:15.840Z,17.10
2018-01-31T23:58:43.425Z,17.10
